Newburgh Heights, Ohio
Current Conditions -  °F | °C
As of 5:53 AM on Sunday 21 Dec 2014 (Local Time) from KBKL Reporting Station
Overcast Overcast  
Wind Chill: 26°   Ceiling: 3300
Heat Index: 31°   Visibility: 9mi
Dew Point: 23°   Wind: 5mph
Humidity: 72%   Direction: 210°SSW
Pressure: 30.31"   Gusts: NA
Location:  41.4719°N, 81.6502°W
Report Text: KBKL 211053Z 21004KT 9SM OVC033 M01/M05 A3031 RMK AO2 SLP269 T10061050
Loading
Personal Weather Stations






























Interactive Weather Map New forecast layout! Learn more

10-Day Weather Forecast

Advertisements
Track Severe Weather on mobile